Terminal Aerodrome Forecast
Issued by NWS Central Illinois

Home | Current Version | Previous Version | Text Only | Print | Product List | Glossary On
Versions: 1 2 3 4 5 6 7 8 9 10 11 12 13 14 15 16 17
991
FTUS43 KILX 171133
TAFSPI
TAF
KSPI 171133Z 1712/1812 20006KT P6SM OVC250
     FM171500 21007KT P6SM -RA OVC090
     FM171900 21006KT P6SM VCSH OVC070
     FM172300 20006KT P6SM OVC030
     FM180300 21006KT 4SM -DZ BKN015=

USA.gov is the U.S. government's official web portal to all federal, state and local government web resources and services.